Time;durP1;ratioP1;P1;durP2;ratioP2;P2;SDS_P1;SDS_P2;PMS_P1;PMS_P2;Temp;Humidity;BMP_temperature;BMP_pressure;BME280_temperature;BME280_humidity;BME280_pressure;Samples;Min_cycle;Max_cycle;Signal;HPM_P1;HPM_P2
2023/11/08 06:00:30;;;;;;;6.70;2.37;;;;;;;;;;5982445;23;20465;-75
2023/11/08 06:02:56;;;;;;;13.93;2.73;;;;;;;;;;4994941;28;20415;-73
2023/11/08 06:05:22;;;;;;;6.20;2.33;;;;;;;;;;4994917;28;20403;-73
2023/11/08 06:07:48;;;;;;;9.23;2.50;;;;;;;;;;4995691;28;20411;-72
2023/11/08 06:10:14;;;;;;;5.90;2.27;;;;;;;;;;4994630;28;20893;-73
2023/11/08 06:12:40;;;;;;;5.60;3.20;;;;;;;;;;4994645;28;20470;-74
2023/11/08 06:15:06;;;;;;;6.00;2.60;;;;;;;;;;4995172;28;20774;-70
2023/11/08 06:17:32;;;;;;;6.87;2.70;;;;;;;;;;4994693;28;20411;-72
2023/11/08 06:19:58;;;;;;;3.60;3.03;;;;;;;;;;4994646;28;20418;-70
2023/11/08 06:22:24;;;;;;;6.27;2.63;;;;;;;;;;4994863;28;20489;-69
2023/11/08 06:24:50;;;;;;;5.70;2.70;;;;;;;;;;4996718;28;20410;-70
2023/11/08 06:27:16;;;;;;;12.60;2.60;;;;;;;;;;4996842;28;20578;-70
2023/11/08 06:29:42;;;;;;;5.23;2.73;;;;;;;;;;4997375;28;20770;-70
2023/11/08 06:32:08;;;;;;;9.43;2.67;;;;;;;;;;4995167;28;20786;-70
2023/11/08 06:37:37;;;;;;;5.30;3.40;;;;;;;;;;4989519;28;20929;-71
2023/11/08 06:40:05;;;;;;;5.77;3.00;;;;;;;;;;4982056;28;20427;-71
2023/11/08 06:42:31;;;;;;;8.13;2.50;;;;;;;;;;4974206;28;20446;-69
2023/11/08 06:44:57;;;;;;;10.97;3.17;;;;;;;;;;4975412;28;20424;-69
2023/11/08 06:50:26;;;;;;;9.60;3.07;;;;;;;;;;4975624;28;20407;-70
2023/11/08 06:52:52;;;;;;;8.50;2.77;;;;;;;;;;4974837;28;20464;-71
2023/11/08 06:55:18;;;;;;;6.47;2.93;;;;;;;;;;4973977;28;20400;-71
2023/11/08 06:57:46;;;;;;;4.80;2.50;;;;;;;;;;4975081;28;20412;-71
2023/11/08 07:00:14;;;;;;;7.23;3.10;;;;;;;;;;4974217;28;20478;-71
2023/11/08 07:02:40;;;;;;;10.17;2.47;;;;;;;;;;4957188;28;20440;-71
2023/11/08 07:05:06;;;;;;;5.40;2.57;;;;;;;;;;4974621;28;20424;-71
2023/11/08 07:07:33;;;;;;;5.00;2.90;;;;;;;;;;4974511;28;20419;-71
2023/11/08 07:09:59;;;;;;;6.90;3.13;;;;;;;;;;4974269;28;20420;-71
2023/11/08 07:12:25;;;;;;;7.27;2.93;;;;;;;;;;4974531;28;20431;-70
2023/11/08 07:14:51;;;;;;;4.50;2.50;;;;;;;;;;4956980;28;20424;-70
2023/11/08 07:17:17;;;;;;;11.60;3.43;;;;;;;;;;4975452;28;20498;-71
2023/11/08 07:19:43;;;;;;;5.23;2.40;;;;;;;;;;4979957;28;20419;-71
2023/11/08 07:22:09;;;;;;;14.17;5.40;;;;;;;;;;4976938;28;20810;-70
2023/11/08 07:24:36;;;;;;;9.13;4.20;;;;;;;;;;4974641;28;20412;-71
2023/11/08 07:27:02;;;;;;;9.00;2.47;;;;;;;;;;4974659;28;20426;-71
2023/11/08 07:29:28;;;;;;;3.57;2.70;;;;;;;;;;4974429;28;20430;-70
2023/11/08 07:31:54;;;;;;;13.20;3.03;;;;;;;;;;4956817;28;20534;-71
2023/11/08 07:34:24;;;;;;;7.53;2.33;;;;;;;;;;4974143;28;20467;-71
2023/11/08 07:36:51;;;;;;;7.63;3.60;;;;;;;;;;4974349;28;20412;-72
2023/11/08 07:39:17;;;;;;;11.63;2.37;;;;;;;;;;4973974;28;20404;-71
2023/11/08 07:41:43;;;;;;;8.43;2.43;;;;;;;;;;4973657;28;20436;-71
2023/11/08 07:44:09;;;;;;;8.20;2.27;;;;;;;;;;4974171;28;20558;-71
2023/11/08 07:46:35;;;;;;;5.13;2.30;;;;;;;;;;4974186;28;20425;-70
2023/11/08 07:49:01;;;;;;;5.60;2.30;;;;;;;;;;4973666;28;20820;-70
2023/11/08 07:51:28;;;;;;;2.63;2.17;;;;;;;;;;4956317;28;20494;-70
2023/11/08 07:53:57;;;;;;;2.50;1.80;;;;;;;;;;4973245;28;20558;-70
2023/11/08 07:56:23;;;;;;;6.33;2.40;;;;;;;;;;4974570;28;20550;-71
2023/11/08 07:58:49;;;;;;;5.87;2.17;;;;;;;;;;4974573;28;20411;-70
2023/11/08 08:01:15;;;;;;;4.43;2.03;;;;;;;;;;4975177;28;20502;-70
2023/11/08 08:03:42;;;;;;;3.67;1.80;;;;;;;;;;4974880;28;20408;-70
2023/11/08 08:06:08;;;;;;;2.60;1.93;;;;;;;;;;4958241;28;20802;-70
2023/11/08 08:08:34;;;;;;;5.70;2.10;;;;;;;;;;4975380;28;20412;-71
2023/11/08 08:11:00;;;;;;;3.47;1.83;;;;;;;;;;4975423;28;20867;-72
2023/11/08 08:13:26;;;;;;;2.57;1.83;;;;;;;;;;4975733;28;20459;-72
2023/11/08 08:15:53;;;;;;;17.93;2.80;;;;;;;;;;4958343;28;20423;-72
2023/11/08 08:18:19;;;;;;;2.07;1.60;;;;;;;;;;4977737;28;20423;-71
2023/11/08 08:20:45;;;;;;;3.30;1.97;;;;;;;;;;4978030;28;20499;-71
2023/11/08 08:23:11;;;;;;;2.83;1.50;;;;;;;;;;4975172;28;20424;-71
2023/11/08 08:25:39;;;;;;;2.93;1.33;;;;;;;;;;4975034;28;20843;-71
2023/11/08 08:28:05;;;;;;;4.17;1.53;;;;;;;;;;4974779;28;20506;-71
2023/11/08 08:30:31;;;;;;;3.87;1.67;;;;;;;;;;4975004;28;20443;-71
2023/11/08 08:33:04;;;;;;;4.17;1.50;;;;;;;;;;4974784;28;20464;-71
2023/11/08 08:35:32;;;;;;;1.67;1.60;;;;;;;;;;4975771;28;20791;-72
2023/11/08 08:38:01;;;;;;;3.00;1.60;;;;;;;;;;4975440;28;20438;-71
2023/11/08 08:40:27;;;;;;;4.10;1.57;;;;;;;;;;4974733;28;20466;-71
2023/11/08 08:42:53;;;;;;;4.40;1.57;;;;;;;;;;4974702;28;20820;-72
2023/11/08 08:45:19;;;;;;;3.70;2.10;;;;;;;;;;4974503;28;20444;-72
2023/11/08 08:47:46;;;;;;;2.73;1.40;;;;;;;;;;4973833;28;20470;-71
2023/11/08 08:50:12;;;;;;;1.87;1.43;;;;;;;;;;4973681;28;20499;-71
2023/11/08 08:52:39;;;;;;;2.33;1.70;;;;;;;;;;4973523;28;20443;-71
2023/11/08 08:55:05;;;;;;;5.90;1.80;;;;;;;;;;4977075;28;20416;-72
2023/11/08 08:57:32;;;;;;;3.73;2.20;;;;;;;;;;4959198;28;20757;-72
2023/11/08 08:59:58;;;;;;;3.67;1.73;;;;;;;;;;4975462;28;20523;-72
2023/11/08 09:02:25;;;;;;;4.50;2.57;;;;;;;;;;4974185;28;20452;-71
2023/11/08 09:04:51;;;;;;;3.23;1.50;;;;;;;;;;4975482;28;20962;-72
2023/11/08 09:07:17;;;;;;;1.40;1.33;;;;;;;;;;4977548;28;20427;-71
2023/11/08 09:09:43;;;;;;;2.60;1.50;;;;;;;;;;4977520;28;20415;-72
2023/11/08 09:12:09;;;;;;;2.10;1.60;;;;;;;;;;4977732;28;20427;-72
2023/11/08 09:14:35;;;;;;;4.43;2.10;;;;;;;;;;4959376;28;21001;-72
2023/11/08 09:17:01;;;;;;;3.60;1.40;;;;;;;;;;4977097;28;20419;-71
2023/11/08 09:19:27;;;;;;;4.60;1.60;;;;;;;;;;4976883;28;20415;-71
2023/11/08 09:21:53;;;;;;;2.63;1.60;;;;;;;;;;4976680;28;20470;-71
2023/11/08 09:24:20;;;;;;;6.33;1.57;;;;;;;;;;4976857;28;20419;-72
2023/11/08 09:26:47;;;;;;;7.13;1.30;;;;;;;;;;4976647;28;20502;-72
2023/11/08 09:29:13;;;;;;;1.60;1.10;;;;;;;;;;4976407;28;20416;-71
2023/11/08 09:31:39;;;;;;;8.57;1.20;;;;;;;;;;4978410;28;20486;-71
2023/11/08 09:34:07;;;;;;;5.33;1.60;;;;;;;;;;4978435;28;20466;-71
2023/11/08 09:36:33;;;;;;;2.30;1.40;;;;;;;;;;4977659;28;20411;-71
2023/11/08 09:38:59;;;;;;;3.87;1.40;;;;;;;;;;4989461;28;20440;-71
2023/11/08 09:41:27;;;;;;;8.03;1.47;;;;;;;;;;4996222;28;20435;-72
2023/11/08 09:43:54;;;;;;;4.10;1.80;;;;;;;;;;4996864;28;20427;-72
2023/11/08 09:46:21;;;;;;;3.53;1.20;;;;;;;;;;4992836;28;20424;-72
2023/11/08 09:48:49;;;;;;;2.80;1.83;;;;;;;;;;4991107;28;20416;-72
2023/11/08 09:51:15;;;;;;;7.23;1.60;;;;;;;;;;4986452;28;20482;-72
2023/11/08 09:53:43;;;;;;;2.73;1.33;;;;;;;;;;4981903;28;20571;-71
2023/11/08 09:56:09;;;;;;;3.23;1.40;;;;;;;;;;4980734;28;20479;-71
2023/11/08 09:58:38;;;;;;;4.00;1.60;;;;;;;;;;4966402;28;20420;-71
2023/11/08 10:01:05;;;;;;;7.70;1.80;;;;;;;;;;4979746;28;20458;-72
2023/11/08 10:03:32;;;;;;;2.70;1.50;;;;;;;;;;4977827;28;20424;-71
2023/11/08 10:05:59;;;;;;;2.10;1.30;;;;;;;;;;4977926;28;20424;-73
2023/11/08 10:08:25;;;;;;;1.57;1.40;;;;;;;;;;4978809;28;20416;-72
2023/11/08 10:10:53;;;;;;;2.97;1.60;;;;;;;;;;4982428;28;20443;-69
2023/11/08 10:13:19;;;;;;;3.67;1.50;;;;;;;;;;4980728;28;20475;-71
2023/11/08 10:16:03;;;;;;;5.27;2.00;;;;;;;;;;4976750;28;20423;-71
2023/11/08 10:18:29;;;;;;;2.93;2.20;;;;;;;;;;4959015;28;20416;-72
2023/11/08 10:21:00;;;;;;;4.10;1.53;;;;;;;;;;4976324;28;20802;-72
2023/11/08 10:23:26;;;;;;;1.87;1.40;;;;;;;;;;4975652;28;20416;-72
2023/11/08 10:26:12;;;;;;;2.17;1.53;;;;;;;;;;4975900;28;20443;-73
2023/11/08 10:28:54;;;;;;;1.97;1.33;;;;;;;;;;4976839;28;20407;-72
2023/11/08 10:31:36;;;;;;;3.87;1.50;;;;;;;;;;4975766;28;20846;-71
2023/11/08 10:34:03;;;;;;;5.07;1.30;;;;;;;;;;4975400;28;20505;-71
2023/11/08 10:36:30;;;;;;;2.20;1.60;;;;;;;;;;4958372;28;20790;-71
2023/11/08 10:38:56;;;;;;;1.60;1.37;;;;;;;;;;4975270;28;20442;-71
2023/11/08 10:41:22;;;;;;;5.77;1.33;;;;;;;;;;4975264;28;20435;-72
2023/11/08 10:43:49;;;;;;;1.60;1.30;;;;;;;;;;4975010;28;20426;-71
2023/11/08 10:46:15;;;;;;;3.90;1.60;;;;;;;;;;4975125;28;20415;-71
2023/11/08 10:48:43;;;;;;;3.30;1.47;;;;;;;;;;4974939;28;20412;-72
2023/11/08 10:51:12;;;;;;;2.67;1.50;;;;;;;;;;4974750;28;20483;-71
2023/11/08 10:53:38;;;;;;;2.00;1.20;;;;;;;;;;4974447;28;20459;-71
2023/11/08 10:56:05;;;;;;;3.13;1.60;;;;;;;;;;4974630;28;20410;-71
2023/11/08 10:58:43;;;;;;;1.10;1.10;;;;;;;;;;4974499;28;20419;-71
2023/11/08 11:01:12;;;;;;;2.23;1.33;;;;;;;;;;4975248;28;20451;-71
2023/11/08 11:03:38;;;;;;;3.47;1.43;;;;;;;;;;4976148;28;20407;-71
2023/11/08 11:06:05;;;;;;;3.50;1.40;;;;;;;;;;4975370;28;20427;-71
2023/11/08 11:08:34;;;;;;;5.47;1.83;;;;;;;;;;4974394;28;20922;-71
2023/11/08 11:11:01;;;;;;;2.20;1.40;;;;;;;;;;4974208;28;20895;-71
2023/11/08 11:13:55;;;;;;;1.40;1.30;;;;;;;;;;4973761;28;20463;-71
2023/11/08 11:16:30;;;;;;;1.23;1.17;;;;;;;;;;4972269;28;20507;-71
2023/11/08 11:19:00;;;;;;;2.33;1.10;;;;;;;;;;4974234;28;20852;-71
2023/11/08 11:21:34;;;;;;;2.47;1.33;;;;;;;;;;4974469;28;20433;-72
2023/11/08 11:24:00;;;;;;;2.83;1.40;;;;;;;;;;4974181;28;20419;-71
2023/11/08 11:26:46;;;;;;;7.07;2.17;;;;;;;;;;4973979;28;20780;-70
2023/11/08 11:29:18;;;;;;;3.50;1.80;;;;;;;;;;4973274;28;20511;-71
2023/11/08 11:31:45;;;;;;;5.63;2.03;;;;;;;;;;4956221;28;20440;-73
2023/11/08 11:37:02;;;;;;;2.77;1.73;;;;;;;;;;4973989;28;20502;-74
2023/11/08 11:39:32;;;;;;;1.90;1.57;;;;;;;;;;4974071;28;20410;-72
2023/11/08 11:41:58;;;;;;;4.17;2.50;;;;;;;;;;4956551;28;20495;-72
2023/11/08 11:44:45;;;;;;;3.17;1.70;;;;;;;;;;4973968;28;20752;-71
2023/11/08 11:47:12;;;;;;;2.10;1.37;;;;;;;;;;4963535;28;20432;-71
2023/11/08 11:49:40;;;;;;;2.40;1.73;;;;;;;;;;4973838;28;20422;-71
2023/11/08 11:52:08;;;;;;;1.30;1.20;;;;;;;;;;4973379;28;20435;-70
2023/11/08 11:54:34;;;;;;;2.60;1.50;;;;;;;;;;4973287;28;20463;-71
2023/11/08 11:57:00;;;;;;;1.80;1.10;;;;;;;;;;4973787;28;20415;-71
2023/11/08 11:59:26;;;;;;;3.17;1.50;;;;;;;;;;4973266;28;20423;-71
2023/11/08 12:01:52;;;;;;;1.87;1.47;;;;;;;;;;4972736;28;20550;-71
2023/11/08 12:04:22;;;;;;;1.70;1.40;;;;;;;;;;4955871;28;20837;-72
2023/11/08 12:06:49;;;;;;;2.33;1.63;;;;;;;;;;4973261;28;20482;-72
2023/11/08 12:09:15;;;;;;;3.10;1.40;;;;;;;;;;4973089;28;20416;-70
2023/11/08 12:11:48;;;;;;;3.80;1.30;;;;;;;;;;4972771;28;20918;-71
2023/11/08 12:14:18;;;;;;;5.03;1.77;;;;;;;;;;4997687;23;20451;-68
2023/11/08 12:16:47;;;;;;;5.97;2.50;;;;;;;;;;4992366;28;20502;-68
2023/11/08 12:19:14;;;;;;;5.97;2.60;;;;;;;;;;4992642;28;20415;-68
2023/11/08 12:21:40;;;;;;;13.20;2.60;;;;;;;;;;4992187;28;20395;-68
2023/11/08 12:24:06;;;;;;;5.03;2.40;;;;;;;;;;4992097;28;20800;-68
2023/11/08 12:26:32;;;;;;;2.47;1.40;;;;;;;;;;4992126;28;20613;-69
2023/11/08 12:28:58;;;;;;;1.47;1.47;;;;;;;;;;4992109;28;20482;-69
2023/11/08 12:31:27;;;;;;;2.43;1.80;;;;;;;;;;4992211;28;20439;-69
2023/11/08 12:33:54;;;;;;;1.10;1.07;;;;;;;;;;4991636;28;21000;-69
2023/11/08 12:36:21;;;;;;;3.40;1.50;;;;;;;;;;4992182;28;20438;-69
2023/11/08 12:38:47;;;;;;;2.80;1.70;;;;;;;;;;4992080;28;20924;-70
2023/11/08 12:41:14;;;;;;;1.73;1.40;;;;;;;;;;4993726;28;20442;-69
2023/11/08 12:43:41;;;;;;;1.40;1.30;;;;;;;;;;4996607;28;20418;-69
2023/11/08 12:46:10;;;;;;;1.90;1.30;;;;;;;;;;4996301;28;20430;-70
2023/11/08 12:48:37;;;;;;;2.70;1.90;;;;;;;;;;4996357;28;20486;-69
2023/11/08 12:51:07;;;;;;;5.67;1.90;;;;;;;;;;4996066;28;20411;-70
2023/11/08 12:53:34;;;;;;;3.30;1.60;;;;;;;;;;4995604;28;20469;-69
2023/11/08 12:56:01;;;;;;;2.00;1.67;;;;;;;;;;4995738;28;20617;-70
2023/11/08 12:58:28;;;;;;;3.20;1.60;;;;;;;;;;4995864;28;20739;-70
2023/11/08 13:00:54;;;;;;;4.70;1.47;;;;;;;;;;4995851;28;20434;-69
2023/11/08 13:03:21;;;;;;;1.80;1.07;;;;;;;;;;4995631;28;20407;-70
2023/11/08 13:05:48;;;;;;;1.63;1.20;;;;;;;;;;4977890;28;20442;-69
2023/11/08 13:08:14;;;;;;;2.10;1.27;;;;;;;;;;4995914;28;20473;-69
2023/11/08 13:10:40;;;;;;;5.30;1.00;;;;;;;;;;4995588;28;20415;-69
2023/11/08 13:13:05;;;;;;;1.07;0.80;;;;;;;;;;4995549;28;20454;-71
2023/11/08 13:15:31;;;;;;;1.47;0.83;;;;;;;;;;4995457;28;20470;-69
2023/11/08 13:17:59;;;;;;;1.13;1.00;;;;;;;;;;4995663;28;20948;-69
2023/11/08 13:20:25;;;;;;;1.80;1.10;;;;;;;;;;4995575;28;20486;-70
2023/11/08 13:22:51;;;;;;;2.00;1.00;;;;;;;;;;4977814;28;20426;-70
2023/11/08 13:25:16;;;;;;;2.73;0.83;;;;;;;;;;4995362;28;20925;-70
2023/11/08 13:27:44;;;;;;;1.93;1.20;;;;;;;;;;4995236;28;20898;-70
2023/11/08 13:30:12;;;;;;;1.40;1.30;;;;;;;;;;4995155;28;20890;-70
2023/11/08 13:32:38;;;;;;;3.70;1.37;;;;;;;;;;4995181;28;20422;-69
2023/11/08 13:35:11;;;;;;;1.20;1.10;;;;;;;;;;4995340;28;20805;-70
2023/11/08 13:37:37;;;;;;;2.67;1.13;;;;;;;;;;4995638;28;20766;-70
2023/11/08 13:40:06;;;;;;;1.13;0.90;;;;;;;;;;4995316;28;20410;-70
2023/11/08 13:42:33;;;;;;;1.27;1.20;;;;;;;;;;4994985;28;20411;-70
2023/11/08 13:44:59;;;;;;;3.13;1.07;;;;;;;;;;4995043;28;20430;-70
2023/11/08 13:47:25;;;;;;;4.03;1.27;;;;;;;;;;4995207;28;20430;-70
2023/11/08 13:49:51;;;;;;;2.60;1.17;;;;;;;;;;4995010;28;20410;-69
2023/11/08 13:52:17;;;;;;;3.07;1.00;;;;;;;;;;4994368;28;20482;-70
2023/11/08 13:54:43;;;;;;;1.60;1.40;;;;;;;;;;4994795;28;20470;-68
2023/11/08 13:57:09;;;;;;;2.03;1.37;;;;;;;;;;4995243;28;20411;-68
2023/11/08 13:59:35;;;;;;;3.57;1.13;;;;;;;;;;4995324;28;20407;-70
2023/11/08 14:02:01;;;;;;;4.43;1.20;;;;;;;;;;4994691;28;20898;-70
2023/11/08 14:04:27;;;;;;;2.00;1.00;;;;;;;;;;4977533;28;20501;-70
2023/11/08 14:06:53;;;;;;;3.90;1.57;;;;;;;;;;4994849;28;20420;-70
2023/11/08 14:09:20;;;;;;;3.07;1.20;;;;;;;;;;4994813;28;20502;-71
2023/11/08 14:11:47;;;;;;;2.50;1.30;;;;;;;;;;4994448;28;20431;-70
2023/11/08 14:14:13;;;;;;;1.50;0.90;;;;;;;;;;4994335;28;20472;-70
2023/11/08 14:16:39;;;;;;;2.17;1.10;;;;;;;;;;4994739;28;20493;-70
2023/11/08 14:19:07;;;;;;;2.10;1.20;;;;;;;;;;4994646;28;20817;-70
2023/11/08 14:21:33;;;;;;;2.60;1.40;;;;;;;;;;4994316;28;20951;-70
2023/11/08 14:23:59;;;;;;;2.57;1.83;;;;;;;;;;4994184;28;20454;-70
2023/11/08 14:26:25;;;;;;;4.17;1.87;;;;;;;;;;4994535;28;20450;-70
2023/11/08 14:28:51;;;;;;;2.70;1.20;;;;;;;;;;4994370;28;20415;-70
2023/11/08 14:31:17;;;;;;;3.37;1.70;;;;;;;;;;4994250;28;20494;-70
2023/11/08 14:33:43;;;;;;;3.30;1.93;;;;;;;;;;4994181;28;20569;-70
2023/11/08 14:36:10;;;;;;;2.30;1.50;;;;;;;;;;4994318;28;20506;-70
2023/11/08 14:38:37;;;;;;;2.80;1.30;;;;;;;;;;4994216;28;20419;-70
2023/11/08 14:41:03;;;;;;;1.50;1.40;;;;;;;;;;4994260;28;20955;-70
2023/11/08 14:43:29;;;;;;;9.73;1.53;;;;;;;;;;4993963;28;20418;-70
2023/11/08 14:45:56;;;;;;;2.73;1.37;;;;;;;;;;4993936;28;20485;-70
2023/11/08 14:48:22;;;;;;;4.80;1.73;;;;;;;;;;4993956;28;20813;-70
2023/11/08 14:50:49;;;;;;;2.30;2.00;;;;;;;;;;4993616;28;20458;-68
2023/11/08 14:53:15;;;;;;;2.57;1.10;;;;;;;;;;4993513;28;20454;-68
2023/11/08 14:55:41;;;;;;;3.30;1.20;;;;;;;;;;4993902;28;20443;-69
2023/11/08 14:58:07;;;;;;;1.53;1.10;;;;;;;;;;4993891;28;20505;-70
2023/11/08 15:00:34;;;;;;;1.47;1.17;;;;;;;;;;4993715;28;20925;-69
2023/11/08 15:03:00;;;;;;;1.90;1.30;;;;;;;;;;4992955;28;20418;-69
2023/11/08 15:05:28;;;;;;;1.30;1.20;;;;;;;;;;4993232;28;20441;-69
2023/11/08 15:07:54;;;;;;;4.13;1.50;;;;;;;;;;4993271;28;20410;-70
2023/11/08 15:10:20;;;;;;;3.10;1.90;;;;;;;;;;4993489;28;20417;-70
2023/11/08 15:12:46;;;;;;;6.23;2.67;;;;;;;;;;4993190;28;20419;-69
2023/11/08 15:15:14;;;;;;;5.10;2.50;;;;;;;;;;4975714;28;20945;-70
2023/11/08 15:17:40;;;;;;;6.47;3.87;;;;;;;;;;4975771;28;20422;-69
2023/11/08 15:20:07;;;;;;;11.80;4.30;;;;;;;;;;4993284;28;20407;-70
2023/11/08 15:22:34;;;;;;;5.83;2.43;;;;;;;;;;4993195;28;20411;-69
2023/11/08 15:25:01;;;;;;;2.73;1.90;;;;;;;;;;4994135;28;20423;-69
2023/11/08 15:27:27;;;;;;;13.67;3.13;;;;;;;;;;4993070;28;20426;-69
2023/11/08 15:29:53;;;;;;;6.70;2.73;;;;;;;;;;4992953;28;20411;-69
2023/11/08 15:32:20;;;;;;;12.33;4.63;;;;;;;;;;4992942;28;20446;-69
2023/11/08 15:34:49;;;;;;;13.90;5.80;;;;;;;;;;4992956;28;21001;-69
2023/11/08 15:37:15;;;;;;;14.10;5.60;;;;;;;;;;4993218;28;20399;-69
2023/11/08 15:39:41;;;;;;;9.17;4.77;;;;;;;;;;4992948;28;20411;-69
2023/11/08 15:42:07;;;;;;;12.10;4.30;;;;;;;;;;4992899;28;20412;-69
2023/11/08 15:44:33;;;;;;;6.17;3.30;;;;;;;;;;4992971;28;20435;-69
2023/11/08 15:46:59;;;;;;;10.47;3.30;;;;;;;;;;4993214;28;20485;-69
2023/11/08 15:49:25;;;;;;;11.73;3.03;;;;;;;;;;4992963;28;20473;-69
2023/11/08 15:51:51;;;;;;;10.60;4.30;;;;;;;;;;4992622;28;20419;-69
2023/11/08 15:54:18;;;;;;;13.20;4.27;;;;;;;;;;4992527;28;20471;-69
2023/11/08 15:56:44;;;;;;;8.30;3.10;;;;;;;;;;4975141;28;20870;-69
2023/11/08 15:59:10;;;;;;;5.20;2.53;;;;;;;;;;4992786;28;20450;-69
2023/11/08 16:01:36;;;;;;;4.43;2.07;;;;;;;;;;4992571;28;20419;-69
2023/11/08 16:04:04;;;;;;;5.70;2.20;;;;;;;;;;4992469;28;20497;-69
2023/11/08 16:06:30;;;;;;;8.57;2.40;;;;;;;;;;4992581;28;20465;-69
2023/11/08 16:08:56;;;;;;;2.77;1.93;;;;;;;;;;4992508;28;20497;-69
2023/11/08 16:11:22;;;;;;;3.30;1.63;;;;;;;;;;4992427;28;20945;-69
2023/11/08 16:13:48;;;;;;;2.63;1.60;;;;;;;;;;4992268;28;20466;-69
2023/11/08 16:16:14;;;;;;;2.23;1.70;;;;;;;;;;4991967;28;20442;-69
2023/11/08 16:18:40;;;;;;;3.50;1.90;;;;;;;;;;4992287;28;20407;-69
2023/11/08 16:21:10;;;;;;;4.77;1.90;;;;;;;;;;4992480;28;20411;-69
2023/11/08 16:23:36;;;;;;;7.47;2.67;;;;;;;;;;4992170;28;20504;-69
2023/11/08 16:26:02;;;;;;;5.53;1.93;;;;;;;;;;4992210;28;20930;-69
2023/11/08 16:28:28;;;;;;;4.27;2.07;;;;;;;;;;4992494;28;21082;-69
2023/11/08 16:30:54;;;;;;;3.07;1.90;;;;;;;;;;4992741;28;20498;-69
2023/11/08 16:33:20;;;;;;;6.33;2.80;;;;;;;;;;4992133;28;20466;-69
2023/11/08 16:35:46;;;;;;;5.60;1.93;;;;;;;;;;4992378;28;20906;-69
2023/11/08 16:38:12;;;;;;;3.13;1.77;;;;;;;;;;4992265;28;20767;-69
2023/11/08 16:40:38;;;;;;;3.20;2.30;;;;;;;;;;4992130;28;20763;-69
2023/11/08 16:43:04;;;;;;;4.77;2.80;;;;;;;;;;4992003;28;20406;-69
2023/11/08 16:45:30;;;;;;;4.67;2.13;;;;;;;;;;4992012;28;20478;-69
2023/11/08 16:47:58;;;;;;;3.53;2.10;;;;;;;;;;4992356;28;20422;-69
2023/11/08 16:50:25;;;;;;;4.63;2.37;;;;;;;;;;4992127;28;20411;-69
2023/11/08 16:52:51;;;;;;;2.83;1.90;;;;;;;;;;4991745;28;20417;-69
2023/11/08 16:55:17;;;;;;;3.03;1.97;;;;;;;;;;4992147;28;20434;-69
2023/11/08 16:57:43;;;;;;;2.80;2.03;;;;;;;;;;4992095;28;20411;-69
2023/11/08 17:00:12;;;;;;;4.30;2.60;;;;;;;;;;4992155;28;20417;-70
2023/11/08 17:02:38;;;;;;;7.13;2.70;;;;;;;;;;4991843;28;20738;-69
2023/11/08 17:05:04;;;;;;;5.97;2.70;;;;;;;;;;4991857;28;20438;-69
2023/11/08 17:07:30;;;;;;;6.43;2.83;;;;;;;;;;4992016;28;20415;-69
2023/11/08 17:09:56;;;;;;;6.57;3.53;;;;;;;;;;4991823;28;20417;-69
2023/11/08 17:12:22;;;;;;;11.10;3.80;;;;;;;;;;4991959;28;20425;-69
2023/11/08 17:14:49;;;;;;;3.30;2.37;;;;;;;;;;4991781;28;20482;-69
2023/11/08 17:17:15;;;;;;;10.20;4.30;;;;;;;;;;4991793;28;20497;-69
2023/11/08 17:19:41;;;;;;;7.10;3.33;;;;;;;;;;4991863;28;20410;-69
2023/11/08 17:22:07;;;;;;;8.13;4.27;;;;;;;;;;4989480;28;20807;-69
2023/11/08 17:24:33;;;;;;;8.70;3.67;;;;;;;;;;4983510;28;20481;-69
2023/11/08 17:27:00;;;;;;;9.70;4.10;;;;;;;;;;4982280;28;20438;-70
2023/11/08 17:29:26;;;;;;;12.83;5.10;;;;;;;;;;4994244;28;20573;-70
2023/11/08 17:31:52;;;;;;;9.67;4.60;;;;;;;;;;4980205;28;20526;-70
2023/11/08 17:34:18;;;;;;;11.10;5.43;;;;;;;;;;4994502;28;20466;-69
2023/11/08 17:36:45;;;;;;;12.17;4.57;;;;;;;;;;4989410;28;20419;-70
2023/11/08 17:39:11;;;;;;;10.10;5.37;;;;;;;;;;5009695;28;20424;-69
2023/11/08 17:41:39;;;;;;;9.13;5.33;;;;;;;;;;4996988;28;20430;-69
2023/11/08 17:44:06;;;;;;;10.83;5.57;;;;;;;;;;4995078;28;20426;-70
2023/11/08 17:46:32;;;;;;;15.63;7.30;;;;;;;;;;4994951;28;20418;-70
2023/11/08 17:48:58;;;;;;;17.77;7.57;;;;;;;;;;4995165;28;20426;-70
2023/11/08 17:51:25;;;;;;;18.63;7.63;;;;;;;;;;4994214;28;20805;-70
2023/11/08 17:53:51;;;;;;;18.40;6.07;;;;;;;;;;4987969;28;20474;-70
2023/11/08 17:56:18;;;;;;;23.53;7.93;;;;;;;;;;4994052;28;20451;-71
2023/11/08 17:58:44;;;;;;;23.83;8.60;;;;;;;;;;4993559;28;20841;-70
2023/11/08 18:01:10;;;;;;;12.70;6.25;;;;;;;;;;4991573;28;20584;-68
2023/11/08 18:03:39;;;;;;;15.30;6.30;;;;;;;;;;4986203;28;20186;-70
2023/11/08 18:06:05;;;;;;;15.80;5.17;;;;;;;;;;4981462;28;20443;-70
2023/11/08 18:08:31;;;;;;;20.53;5.87;;;;;;;;;;4972090;28;20426;-70
2023/11/08 18:10:57;;;;;;;14.30;5.40;;;;;;;;;;4994054;28;20422;-70
2023/11/08 18:13:23;;;;;;;22.43;6.30;;;;;;;;;;4982784;28;20459;-71
2023/11/08 18:15:49;;;;;;;21.30;6.17;;;;;;;;;;4987982;28;20466;-70
2023/11/08 18:18:18;;;;;;;15.60;5.70;;;;;;;;;;4993100;28;20422;-70
2023/11/08 18:20:44;;;;;;;16.20;5.20;;;;;;;;;;4989157;28;20427;-70
2023/11/08 18:23:10;;;;;;;14.13;5.37;;;;;;;;;;4974945;28;20424;-70
2023/11/08 18:25:36;;;;;;;11.17;5.20;;;;;;;;;;4986659;28;20451;-70
2023/11/08 18:28:02;;;;;;;14.87;5.53;;;;;;;;;;4994579;28;20415;-71
2023/11/08 18:30:31;;;;;;;14.93;5.00;;;;;;;;;;4991482;28;20458;-69
2023/11/08 18:32:57;;;;;;;16.53;5.90;;;;;;;;;;4987793;28;20517;-71
2023/11/08 18:35:25;;;;;;;13.23;6.80;;;;;;;;;;4966356;28;20451;-69
2023/11/08 18:37:51;;;;;;;16.20;6.63;;;;;;;;;;4979615;28;20437;-68
2023/11/08 18:40:19;;;;;;;14.30;6.27;;;;;;;;;;4983290;28;20978;-69
2023/11/08 18:42:45;;;;;;;19.23;7.73;;;;;;;;;;4985310;28;20513;-70
2023/11/08 18:45:12;;;;;;;12.80;5.73;;;;;;;;;;4993453;28;20538;-69
2023/11/08 18:47:38;;;;;;;8.57;6.23;;;;;;;;;;4992521;28;20411;-69
2023/11/08 18:50:06;;;;;;;15.13;5.50;;;;;;;;;;4980048;28;20423;-69
2023/11/08 18:52:32;;;;;;;7.93;5.47;;;;;;;;;;4993921;28;20457;-70
2023/11/08 18:54:58;;;;;;;18.03;5.67;;;;;;;;;;4991121;28;20463;-70
2023/11/08 18:57:24;;;;;;;13.50;6.57;;;;;;;;;;4974662;28;20416;-70
2023/11/08 18:59:50;;;;;;;16.20;7.00;;;;;;;;;;4974516;28;20416;-70
2023/11/08 19:02:16;;;;;;;22.90;7.10;;;;;;;;;;4974317;28;20494;-70
2023/11/08 19:04:44;;;;;;;13.97;6.80;;;;;;;;;;4976163;28;20518;-70
2023/11/08 19:07:10;;;;;;;16.87;6.50;;;;;;;;;;4993069;28;20423;-70
2023/11/08 19:09:36;;;;;;;14.20;6.23;;;;;;;;;;4994082;28;20429;-70
2023/11/08 19:12:02;;;;;;;16.00;6.30;;;;;;;;;;4998315;28;20518;-70
2023/11/08 19:14:28;;;;;;;15.80;7.23;;;;;;;;;;4993141;28;20498;-70
2023/11/08 19:16:54;;;;;;;13.60;5.93;;;;;;;;;;4995526;28;20430;-70
2023/11/08 19:19:20;;;;;;;21.10;7.57;;;;;;;;;;4995760;28;20808;-70
2023/11/08 19:21:49;;;;;;;15.30;6.90;;;;;;;;;;4992825;28;20494;-70
2023/11/08 19:24:15;;;;;;;11.90;6.63;;;;;;;;;;4988826;28;20435;-70
2023/11/08 19:26:41;;;;;;;15.97;7.50;;;;;;;;;;5002779;28;20884;-71
2023/11/08 19:29:07;;;;;;;12.50;6.40;;;;;;;;;;4981354;28;20421;-70
2023/11/08 19:31:34;;;;;;;24.73;7.57;;;;;;;;;;4995654;28;20462;-70
2023/11/08 19:34:02;;;;;;;12.87;6.33;;;;;;;;;;4996231;28;20564;-69
2023/11/08 19:36:28;;;;;;;20.53;7.93;;;;;;;;;;4996067;28;20415;-68
2023/11/08 19:38:54;;;;;;;11.70;6.93;;;;;;;;;;4994718;28;20415;-69
2023/11/08 19:41:21;;;;;;;19.50;7.10;;;;;;;;;;4993398;28;20477;-69
2023/11/08 19:43:47;;;;;;;17.17;6.77;;;;;;;;;;4990908;28;20925;-69
2023/11/08 19:46:13;;;;;;;13.90;8.07;;;;;;;;;;4993312;28;20526;-69
2023/11/08 19:48:40;;;;;;;22.33;9.20;;;;;;;;;;4992830;28;20885;-69
2023/11/08 19:51:06;;;;;;;12.90;8.10;;;;;;;;;;4992118;28;20438;-69
2023/11/08 19:53:32;;;;;;;13.77;7.20;;;;;;;;;;4992654;28;20807;-69
2023/11/08 19:55:58;;;;;;;16.13;7.60;;;;;;;;;;4980265;28;20866;-69
2023/11/08 19:58:24;;;;;;;14.50;6.87;;;;;;;;;;4988243;28;20419;-69
2023/11/08 20:00:50;;;;;;;19.63;8.93;;;;;;;;;;4992730;28;20778;-69
2023/11/08 20:03:16;;;;;;;18.30;7.50;;;;;;;;;;4992468;28;20763;-68
2023/11/08 20:05:42;;;;;;;13.63;7.00;;;;;;;;;;4992563;28;20447;-70
2023/11/08 20:08:08;;;;;;;14.47;7.30;;;;;;;;;;4992768;28;20414;-71
2023/11/08 20:10:34;;;;;;;15.97;8.50;;;;;;;;;;4992057;28;20431;-69
2023/11/08 20:13:00;;;;;;;15.97;7.53;;;;;;;;;;4992262;28;20411;-69
2023/11/08 20:15:26;;;;;;;15.30;8.10;;;;;;;;;;4992350;28;20490;-70
2023/11/08 20:17:52;;;;;;;11.03;6.93;;;;;;;;;;4992563;28;20421;-70
2023/11/08 20:20:18;;;;;;;15.67;7.87;;;;;;;;;;4992603;28;20422;-69
2023/11/08 20:22:48;;;;;;;16.87;7.87;;;;;;;;;;4984314;28;20855;-70
2023/11/08 20:25:14;;;;;;;12.57;7.70;;;;;;;;;;4992436;28;20952;-71
2023/11/08 20:27:40;;;;;;;11.70;6.73;;;;;;;;;;4986658;28;20459;-71
2023/11/08 20:30:07;;;;;;;13.17;6.50;;;;;;;;;;4995149;28;20506;-70
2023/11/08 20:32:35;;;;;;;14.87;6.80;;;;;;;;;;4996070;28;20414;-68
2023/11/08 20:35:02;;;;;;;14.53;6.80;;;;;;;;;;4987460;28;20557;-69
2023/11/08 20:37:28;;;;;;;23.20;8.80;;;;;;;;;;4994919;28;20423;-70
2023/11/08 20:39:54;;;;;;;15.77;8.40;;;;;;;;;;4994185;28;20426;-70
2023/11/08 20:42:23;;;;;;;15.70;9.00;;;;;;;;;;4984352;28;20805;-70
2023/11/08 20:44:49;;;;;;;17.77;9.40;;;;;;;;;;4988298;28;20479;-70